sensor_id;sensor_type;location;lat;lon;timestamp;P1;durP1;ratioP1;P2;durP2;ratioP2
65459;SDS011;52058;49.822;6.754;2023-04-09T00:02:26;25.48;;;11.63;;
65459;SDS011;52058;49.822;6.754;2023-04-09T00:04:52;22.80;;;11.82;;
65459;SDS011;52058;49.822;6.754;2023-04-09T00:07:19;24.23;;;11.60;;
65459;SDS011;52058;49.822;6.754;2023-04-09T00:09:45;22.67;;;12.07;;
65459;SDS011;52058;49.822;6.754;2023-04-09T00:12:12;24.90;;;11.85;;
65459;SDS011;52058;49.822;6.754;2023-04-09T00:14:38;25.75;;;12.07;;
65459;SDS011;52058;49.822;6.754;2023-04-09T00:17:05;22.83;;;11.40;;
65459;SDS011;52058;49.822;6.754;2023-04-09T00:19:33;25.30;;;12.77;;
65459;SDS011;52058;49.822;6.754;2023-04-09T00:21:59;25.77;;;13.43;;
65459;SDS011;52058;49.822;6.754;2023-04-09T00:24:26;23.65;;;12.55;;
65459;SDS011;52058;49.822;6.754;2023-04-09T00:26:53;23.70;;;11.82;;
65459;SDS011;52058;49.822;6.754;2023-04-09T00:29:19;21.67;;;11.80;;
65459;SDS011;52058;49.822;6.754;2023-04-09T00:31:46;23.95;;;12.88;;
65459;SDS011;52058;49.822;6.754;2023-04-09T00:34:12;24.70;;;11.48;;
65459;SDS011;52058;49.822;6.754;2023-04-09T00:36:40;23.42;;;11.68;;
65459;SDS011;52058;49.822;6.754;2023-04-09T00:39:07;26.35;;;11.73;;
65459;SDS011;52058;49.822;6.754;2023-04-09T00:41:34;25.75;;;12.10;;
65459;SDS011;52058;49.822;6.754;2023-04-09T00:44:00;26.45;;;12.13;;
65459;SDS011;52058;49.822;6.754;2023-04-09T00:46:27;23.88;;;12.15;;
65459;SDS011;52058;49.822;6.754;2023-04-09T00:48:53;25.58;;;12.45;;
65459;SDS011;52058;49.822;6.754;2023-04-09T00:51:20;23.67;;;11.50;;
65459;SDS011;52058;49.822;6.754;2023-04-09T00:53:48;27.02;;;12.57;;
65459;SDS011;52058;49.822;6.754;2023-04-09T00:56:15;25.38;;;12.98;;
65459;SDS011;52058;49.822;6.754;2023-04-09T00:58:43;26.88;;;13.13;;
65459;SDS011;52058;49.822;6.754;2023-04-09T01:01:10;26.17;;;12.63;;
65459;SDS011;52058;49.822;6.754;2023-04-09T01:03:36;24.98;;;12.20;;
65459;SDS011;52058;49.822;6.754;2023-04-09T01:06:05;27.13;;;12.77;;
65459;SDS011;52058;49.822;6.754;2023-04-09T01:08:38;22.88;;;12.13;;
65459;SDS011;52058;49.822;6.754;2023-04-09T01:11:15;25.20;;;13.32;;
65459;SDS011;52058;49.822;6.754;2023-04-09T01:13:56;26.40;;;12.00;;
65459;SDS011;52058;49.822;6.754;2023-04-09T01:16:29;27.58;;;14.10;;
65459;SDS011;52058;49.822;6.754;2023-04-09T01:19:00;27.05;;;12.23;;
65459;SDS011;52058;49.822;6.754;2023-04-09T01:21:31;27.88;;;12.00;;
65459;SDS011;52058;49.822;6.754;2023-04-09T01:24:01;24.10;;;11.70;;
65459;SDS011;52058;49.822;6.754;2023-04-09T01:26:49;21.75;;;11.05;;
65459;SDS011;52058;49.822;6.754;2023-04-09T01:29:23;26.05;;;12.07;;
65459;SDS011;52058;49.822;6.754;2023-04-09T01:31:51;21.77;;;11.02;;
65459;SDS011;52058;49.822;6.754;2023-04-09T01:34:19;21.45;;;10.45;;
65459;SDS011;52058;49.822;6.754;2023-04-09T01:36:47;21.17;;;11.50;;
65459;SDS011;52058;49.822;6.754;2023-04-09T01:39:17;22.30;;;10.88;;
65459;SDS011;52058;49.822;6.754;2023-04-09T01:41:43;22.63;;;11.73;;
65459;SDS011;52058;49.822;6.754;2023-04-09T01:44:11;20.75;;;10.80;;
65459;SDS011;52058;49.822;6.754;2023-04-09T01:46:40;17.48;;;9.63;;
65459;SDS011;52058;49.822;6.754;2023-04-09T01:49:08;18.55;;;10.68;;
65459;SDS011;52058;49.822;6.754;2023-04-09T01:51:36;19.63;;;10.57;;
65459;SDS011;52058;49.822;6.754;2023-04-09T01:54:03;18.02;;;10.05;;
65459;SDS011;52058;49.822;6.754;2023-04-09T01:56:38;21.17;;;11.15;;
65459;SDS011;52058;49.822;6.754;2023-04-09T01:59:05;20.13;;;10.35;;
65459;SDS011;52058;49.822;6.754;2023-04-09T02:01:32;16.25;;;10.15;;
65459;SDS011;52058;49.822;6.754;2023-04-09T02:04:06;20.58;;;11.05;;
65459;SDS011;52058;49.822;6.754;2023-04-09T02:06:41;16.83;;;10.60;;
65459;SDS011;52058;49.822;6.754;2023-04-09T02:09:20;18.17;;;9.85;;
65459;SDS011;52058;49.822;6.754;2023-04-09T02:11:49;23.80;;;12.65;;
65459;SDS011;52058;49.822;6.754;2023-04-09T02:14:16;21.98;;;11.25;;
65459;SDS011;52058;49.822;6.754;2023-04-09T02:16:44;18.17;;;10.32;;
65459;SDS011;52058;49.822;6.754;2023-04-09T02:19:12;20.63;;;11.30;;
65459;SDS011;52058;49.822;6.754;2023-04-09T02:21:39;16.35;;;10.40;;
65459;SDS011;52058;49.822;6.754;2023-04-09T02:24:06;21.33;;;11.35;;
65459;SDS011;52058;49.822;6.754;2023-04-09T02:26:32;22.42;;;10.23;;
65459;SDS011;52058;49.822;6.754;2023-04-09T02:28:59;21.67;;;11.27;;
65459;SDS011;52058;49.822;6.754;2023-04-09T02:31:25;22.52;;;10.93;;
65459;SDS011;52058;49.822;6.754;2023-04-09T02:33:53;21.85;;;12.07;;
65459;SDS011;52058;49.822;6.754;2023-04-09T02:36:21;21.98;;;11.80;;
65459;SDS011;52058;49.822;6.754;2023-04-09T02:38:48;23.95;;;12.18;;
65459;SDS011;52058;49.822;6.754;2023-04-09T02:41:14;21.75;;;11.55;;
65459;SDS011;52058;49.822;6.754;2023-04-09T02:43:41;23.92;;;12.10;;
65459;SDS011;52058;49.822;6.754;2023-04-09T02:46:08;20.63;;;10.88;;
65459;SDS011;52058;49.822;6.754;2023-04-09T02:48:34;23.20;;;11.73;;
65459;SDS011;52058;49.822;6.754;2023-04-09T02:51:03;21.95;;;11.50;;
65459;SDS011;52058;49.822;6.754;2023-04-09T02:53:31;20.77;;;11.07;;
65459;SDS011;52058;49.822;6.754;2023-04-09T02:55:58;20.88;;;11.90;;
65459;SDS011;52058;49.822;6.754;2023-04-09T02:58:24;18.35;;;10.27;;
65459;SDS011;52058;49.822;6.754;2023-04-09T03:00:51;22.70;;;11.85;;
65459;SDS011;52058;49.822;6.754;2023-04-09T03:03:17;20.60;;;10.43;;
65459;SDS011;52058;49.822;6.754;2023-04-09T03:05:44;20.98;;;12.07;;
65459;SDS011;52058;49.822;6.754;2023-04-09T03:08:10;19.02;;;10.80;;
65459;SDS011;52058;49.822;6.754;2023-04-09T03:10:38;20.42;;;11.35;;
65459;SDS011;52058;49.822;6.754;2023-04-09T03:13:05;18.10;;;10.93;;
65459;SDS011;52058;49.822;6.754;2023-04-09T03:15:31;17.55;;;10.90;;
65459;SDS011;52058;49.822;6.754;2023-04-09T03:17:58;19.05;;;11.15;;
65459;SDS011;52058;49.822;6.754;2023-04-09T03:20:25;20.50;;;11.55;;
65459;SDS011;52058;49.822;6.754;2023-04-09T03:22:51;18.65;;;10.55;;
65459;SDS011;52058;49.822;6.754;2023-04-09T03:25:18;21.25;;;11.82;;
65459;SDS011;52058;49.822;6.754;2023-04-09T03:27:46;18.20;;;10.90;;
65459;SDS011;52058;49.822;6.754;2023-04-09T03:30:13;22.23;;;12.25;;
65459;SDS011;52058;49.822;6.754;2023-04-09T03:32:39;19.20;;;10.48;;
65459;SDS011;52058;49.822;6.754;2023-04-09T03:35:06;25.38;;;12.63;;
65459;SDS011;52058;49.822;6.754;2023-04-09T03:37:33;21.58;;;11.68;;
65459;SDS011;52058;49.822;6.754;2023-04-09T03:40:00;19.83;;;10.88;;
65459;SDS011;52058;49.822;6.754;2023-04-09T03:42:27;21.08;;;11.05;;
65459;SDS011;52058;49.822;6.754;2023-04-09T03:44:55;19.35;;;11.27;;
65459;SDS011;52058;49.822;6.754;2023-04-09T03:47:22;17.67;;;10.90;;
65459;SDS011;52058;49.822;6.754;2023-04-09T03:49:49;20.40;;;10.50;;
65459;SDS011;52058;49.822;6.754;2023-04-09T03:52:15;20.08;;;10.85;;
65459;SDS011;52058;49.822;6.754;2023-04-09T03:54:42;22.85;;;12.15;;
65459;SDS011;52058;49.822;6.754;2023-04-09T03:57:08;24.05;;;12.15;;
65459;SDS011;52058;49.822;6.754;2023-04-09T03:59:35;20.73;;;11.60;;
65459;SDS011;52058;49.822;6.754;2023-04-09T04:02:03;19.40;;;11.07;;
65459;SDS011;52058;49.822;6.754;2023-04-09T04:04:29;20.25;;;11.07;;
65459;SDS011;52058;49.822;6.754;2023-04-09T04:06:56;17.30;;;10.35;;
65459;SDS011;52058;49.822;6.754;2023-04-09T04:09:22;19.58;;;10.60;;
65459;SDS011;52058;49.822;6.754;2023-04-09T04:11:49;21.52;;;11.75;;
65459;SDS011;52058;49.822;6.754;2023-04-09T04:14:16;17.33;;;11.07;;
65459;SDS011;52058;49.822;6.754;2023-04-09T04:16:42;19.73;;;11.13;;
65459;SDS011;52058;49.822;6.754;2023-04-09T04:19:10;21.15;;;11.70;;
65459;SDS011;52058;49.822;6.754;2023-04-09T04:21:37;18.85;;;10.80;;
65459;SDS011;52058;49.822;6.754;2023-04-09T04:24:03;20.38;;;11.05;;
65459;SDS011;52058;49.822;6.754;2023-04-09T04:26:30;19.17;;;10.85;;
65459;SDS011;52058;49.822;6.754;2023-04-09T04:28:57;21.98;;;12.00;;
65459;SDS011;52058;49.822;6.754;2023-04-09T04:31:23;20.23;;;11.38;;
65459;SDS011;52058;49.822;6.754;2023-04-09T04:33:50;20.52;;;11.85;;
65459;SDS011;52058;49.822;6.754;2023-04-09T04:36:18;22.67;;;11.60;;
65459;SDS011;52058;49.822;6.754;2023-04-09T04:38:45;24.27;;;11.85;;
65459;SDS011;52058;49.822;6.754;2023-04-09T04:41:12;20.25;;;11.07;;
65459;SDS011;52058;49.822;6.754;2023-04-09T04:43:38;20.55;;;10.93;;
65459;SDS011;52058;49.822;6.754;2023-04-09T04:46:06;19.80;;;11.48;;
65459;SDS011;52058;49.822;6.754;2023-04-09T04:48:32;19.45;;;11.30;;
65459;SDS011;52058;49.822;6.754;2023-04-09T04:50:59;20.83;;;10.80;;
65459;SDS011;52058;49.822;6.754;2023-04-09T04:53:28;19.13;;;10.65;;
65459;SDS011;52058;49.822;6.754;2023-04-09T04:55:54;22.70;;;12.40;;
65459;SDS011;52058;49.822;6.754;2023-04-09T04:58:21;21.65;;;11.73;;
65459;SDS011;52058;49.822;6.754;2023-04-09T05:00:48;22.17;;;12.63;;
65459;SDS011;52058;49.822;6.754;2023-04-09T05:03:14;20.55;;;10.38;;
65459;SDS011;52058;49.822;6.754;2023-04-09T05:05:41;20.30;;;11.20;;
65459;SDS011;52058;49.822;6.754;2023-04-09T05:08:07;20.33;;;11.48;;
65459;SDS011;52058;49.822;6.754;2023-04-09T05:10:35;19.95;;;12.05;;
65459;SDS011;52058;49.822;6.754;2023-04-09T05:13:02;19.90;;;11.23;;
65459;SDS011;52058;49.822;6.754;2023-04-09T05:15:29;22.33;;;11.60;;
65459;SDS011;52058;49.822;6.754;2023-04-09T05:17:56;18.42;;;10.95;;
65459;SDS011;52058;49.822;6.754;2023-04-09T05:20:23;19.52;;;11.40;;
65459;SDS011;52058;49.822;6.754;2023-04-09T05:22:52;17.42;;;10.60;;
65459;SDS011;52058;49.822;6.754;2023-04-09T05:25:18;19.25;;;10.15;;
65459;SDS011;52058;49.822;6.754;2023-04-09T05:27:46;18.60;;;10.43;;
65459;SDS011;52058;49.822;6.754;2023-04-09T05:30:13;20.50;;;11.60;;
65459;SDS011;52058;49.822;6.754;2023-04-09T05:32:40;19.70;;;11.38;;
65459;SDS011;52058;49.822;6.754;2023-04-09T05:35:07;17.40;;;10.30;;
65459;SDS011;52058;49.822;6.754;2023-04-09T05:37:34;19.83;;;10.88;;
65459;SDS011;52058;49.822;6.754;2023-04-09T05:40:00;20.55;;;11.57;;
65459;SDS011;52058;49.822;6.754;2023-04-09T05:42:27;17.58;;;10.50;;
65459;SDS011;52058;49.822;6.754;2023-04-09T05:44:55;17.60;;;10.68;;
65459;SDS011;52058;49.822;6.754;2023-04-09T05:47:21;19.98;;;10.70;;
65459;SDS011;52058;49.822;6.754;2023-04-09T05:49:48;17.58;;;10.05;;
65459;SDS011;52058;49.822;6.754;2023-04-09T05:52:14;16.20;;;10.35;;
65459;SDS011;52058;49.822;6.754;2023-04-09T05:54:41;18.95;;;10.60;;
65459;SDS011;52058;49.822;6.754;2023-04-09T05:57:08;21.25;;;11.05;;
65459;SDS011;52058;49.822;6.754;2023-04-09T05:59:34;18.70;;;10.63;;
65459;SDS011;52058;49.822;6.754;2023-04-09T06:02:02;20.38;;;11.07;;
65459;SDS011;52058;49.822;6.754;2023-04-09T06:04:29;18.70;;;11.70;;
65459;SDS011;52058;49.822;6.754;2023-04-09T06:06:56;19.45;;;10.65;;
65459;SDS011;52058;49.822;6.754;2023-04-09T06:09:24;19.50;;;11.23;;
65459;SDS011;52058;49.822;6.754;2023-04-09T06:11:50;19.00;;;10.50;;
65459;SDS011;52058;49.822;6.754;2023-04-09T06:14:17;19.25;;;10.82;;
65459;SDS011;52058;49.822;6.754;2023-04-09T06:16:43;17.35;;;10.63;;
65459;SDS011;52058;49.822;6.754;2023-04-09T06:19:12;20.67;;;12.00;;
65459;SDS011;52058;49.822;6.754;2023-04-09T06:21:41;19.52;;;11.50;;
65459;SDS011;52058;49.822;6.754;2023-04-09T06:24:07;19.35;;;11.20;;
65459;SDS011;52058;49.822;6.754;2023-04-09T06:26:34;18.85;;;11.73;;
65459;SDS011;52058;49.822;6.754;2023-04-09T06:29:00;18.67;;;11.55;;
65459;SDS011;52058;49.822;6.754;2023-04-09T06:31:27;19.70;;;11.80;;
65459;SDS011;52058;49.822;6.754;2023-04-09T06:33:53;16.85;;;11.45;;
65459;SDS011;52058;49.822;6.754;2023-04-09T06:36:21;15.88;;;11.30;;
65459;SDS011;52058;49.822;6.754;2023-04-09T06:38:48;17.00;;;10.05;;
65459;SDS011;52058;49.822;6.754;2023-04-09T06:41:15;20.10;;;12.43;;
65459;SDS011;52058;49.822;6.754;2023-04-09T06:43:41;19.67;;;11.73;;
65459;SDS011;52058;49.822;6.754;2023-04-09T06:46:08;18.67;;;11.38;;
65459;SDS011;52058;49.822;6.754;2023-04-09T06:48:35;17.65;;;11.13;;
65459;SDS011;52058;49.822;6.754;2023-04-09T06:51:02;19.25;;;11.00;;
65459;SDS011;52058;49.822;6.754;2023-04-09T06:53:30;21.17;;;11.50;;
65459;SDS011;52058;49.822;6.754;2023-04-09T06:55:56;16.55;;;10.90;;
65459;SDS011;52058;49.822;6.754;2023-04-09T06:58:23;18.35;;;11.63;;
65459;SDS011;52058;49.822;6.754;2023-04-09T07:00:49;16.65;;;10.95;;
65459;SDS011;52058;49.822;6.754;2023-04-09T07:03:16;19.45;;;11.88;;
65459;SDS011;52058;49.822;6.754;2023-04-09T07:05:43;17.15;;;11.13;;
65459;SDS011;52058;49.822;6.754;2023-04-09T07:08:09;16.98;;;10.80;;
65459;SDS011;52058;49.822;6.754;2023-04-09T07:10:38;21.02;;;11.65;;
65459;SDS011;52058;49.822;6.754;2023-04-09T07:13:04;19.48;;;11.23;;
65459;SDS011;52058;49.822;6.754;2023-04-09T07:15:31;18.90;;;11.52;;
65459;SDS011;52058;49.822;6.754;2023-04-09T07:17:58;21.33;;;11.50;;
65459;SDS011;52058;49.822;6.754;2023-04-09T07:20:24;19.60;;;10.65;;
65459;SDS011;52058;49.822;6.754;2023-04-09T07:22:51;18.38;;;10.20;;
65459;SDS011;52058;49.822;6.754;2023-04-09T07:25:18;18.92;;;9.73;;
65459;SDS011;52058;49.822;6.754;2023-04-09T07:27:46;16.75;;;9.85;;
65459;SDS011;52058;49.822;6.754;2023-04-09T07:30:13;16.05;;;9.63;;
65459;SDS011;52058;49.822;6.754;2023-04-09T07:32:40;16.30;;;9.05;;
65459;SDS011;52058;49.822;6.754;2023-04-09T07:35:07;14.30;;;8.55;;
65459;SDS011;52058;49.822;6.754;2023-04-09T07:37:35;13.90;;;8.73;;
65459;SDS011;52058;49.822;6.754;2023-04-09T07:40:02;17.15;;;9.98;;
65459;SDS011;52058;49.822;6.754;2023-04-09T07:42:30;16.15;;;8.85;;
65459;SDS011;52058;49.822;6.754;2023-04-09T07:44:59;14.50;;;8.73;;
65459;SDS011;52058;49.822;6.754;2023-04-09T07:47:27;14.20;;;8.40;;
65459;SDS011;52058;49.822;6.754;2023-04-09T07:49:54;21.20;;;11.45;;
65459;SDS011;52058;49.822;6.754;2023-04-09T07:52:20;15.65;;;11.07;;
65459;SDS011;52058;49.822;6.754;2023-04-09T07:54:47;14.88;;;8.07;;
65459;SDS011;52058;49.822;6.754;2023-04-09T07:57:13;13.20;;;7.15;;
65459;SDS011;52058;49.822;6.754;2023-04-09T07:59:40;12.23;;;7.20;;
65459;SDS011;52058;49.822;6.754;2023-04-09T08:02:08;11.88;;;7.20;;
65459;SDS011;52058;49.822;6.754;2023-04-09T08:04:35;12.70;;;7.20;;
65459;SDS011;52058;49.822;6.754;2023-04-09T08:07:02;13.20;;;7.80;;
65459;SDS011;52058;49.822;6.754;2023-04-09T08:09:29;12.43;;;8.00;;
65459;SDS011;52058;49.822;6.754;2023-04-09T08:11:56;13.13;;;7.13;;
65459;SDS011;52058;49.822;6.754;2023-04-09T08:14:22;11.48;;;6.70;;
65459;SDS011;52058;49.822;6.754;2023-04-09T08:16:49;11.10;;;6.78;;
65459;SDS011;52058;49.822;6.754;2023-04-09T08:19:17;9.23;;;5.97;;
65459;SDS011;52058;49.822;6.754;2023-04-09T08:21:45;10.73;;;6.80;;
65459;SDS011;52058;49.822;6.754;2023-04-09T08:24:13;10.30;;;6.32;;
65459;SDS011;52058;49.822;6.754;2023-04-09T08:26:40;9.13;;;6.15;;
65459;SDS011;52058;49.822;6.754;2023-04-09T08:29:07;10.30;;;6.50;;
65459;SDS011;52058;49.822;6.754;2023-04-09T08:31:36;10.48;;;6.78;;
65459;SDS011;52058;49.822;6.754;2023-04-09T08:34:03;8.95;;;5.75;;
65459;SDS011;52058;49.822;6.754;2023-04-09T08:36:31;8.77;;;5.80;;
65459;SDS011;52058;49.822;6.754;2023-04-09T08:38:59;9.80;;;6.32;;
65459;SDS011;52058;49.822;6.754;2023-04-09T08:41:26;11.63;;;6.25;;
65459;SDS011;52058;49.822;6.754;2023-04-09T08:43:54;9.00;;;6.30;;
65459;SDS011;52058;49.822;6.754;2023-04-09T08:46:22;9.82;;;5.78;;
65459;SDS011;52058;49.822;6.754;2023-04-09T08:48:49;9.90;;;6.07;;
65459;SDS011;52058;49.822;6.754;2023-04-09T08:51:17;9.00;;;5.75;;
65459;SDS011;52058;49.822;6.754;2023-04-09T08:53:46;8.75;;;5.70;;
65459;SDS011;52058;49.822;6.754;2023-04-09T08:56:16;8.13;;;5.87;;
65459;SDS011;52058;49.822;6.754;2023-04-09T08:58:45;8.93;;;5.75;;
65459;SDS011;52058;49.822;6.754;2023-04-09T09:01:21;8.93;;;5.60;;
65459;SDS011;52058;49.822;6.754;2023-04-09T09:03:53;9.48;;;5.95;;
65459;SDS011;52058;49.822;6.754;2023-04-09T09:06:21;9.23;;;5.80;;
65459;SDS011;52058;49.822;6.754;2023-04-09T09:09:00;9.70;;;6.07;;
65459;SDS011;52058;49.822;6.754;2023-04-09T09:11:28;9.10;;;6.40;;
65459;SDS011;52058;49.822;6.754;2023-04-09T09:14:03;9.07;;;5.45;;
65459;SDS011;52058;49.822;6.754;2023-04-09T09:16:30;7.95;;;5.57;;
65459;SDS011;52058;49.822;6.754;2023-04-09T09:18:59;9.43;;;5.82;;
65459;SDS011;52058;49.822;6.754;2023-04-09T09:21:26;8.57;;;5.93;;
65459;SDS011;52058;49.822;6.754;2023-04-09T09:23:54;9.30;;;6.15;;
65459;SDS011;52058;49.822;6.754;2023-04-09T09:26:22;9.70;;;5.53;;
65459;SDS011;52058;49.822;6.754;2023-04-09T09:28:51;9.45;;;6.20;;
65459;SDS011;52058;49.822;6.754;2023-04-09T09:31:32;9.65;;;6.10;;
65459;SDS011;52058;49.822;6.754;2023-04-09T09:34:11;8.27;;;5.22;;
65459;SDS011;52058;49.822;6.754;2023-04-09T09:36:38;7.45;;;5.15;;
65459;SDS011;52058;49.822;6.754;2023-04-09T09:39:04;8.93;;;5.13;;
65459;SDS011;52058;49.822;6.754;2023-04-09T09:41:35;7.63;;;4.68;;
65459;SDS011;52058;49.822;6.754;2023-04-09T09:44:02;6.90;;;4.60;;
65459;SDS011;52058;49.822;6.754;2023-04-09T09:46:32;9.68;;;5.97;;
65459;SDS011;52058;49.822;6.754;2023-04-09T09:49:00;7.13;;;4.65;;
65459;SDS011;52058;49.822;6.754;2023-04-09T09:51:26;8.35;;;5.10;;
65459;SDS011;52058;49.822;6.754;2023-04-09T09:53:54;6.30;;;4.43;;
65459;SDS011;52058;49.822;6.754;2023-04-09T09:56:22;8.85;;;5.88;;
65459;SDS011;52058;49.822;6.754;2023-04-09T09:59:00;8.18;;;5.40;;
65459;SDS011;52058;49.822;6.754;2023-04-09T10:01:31;7.22;;;4.82;;
65459;SDS011;52058;49.822;6.754;2023-04-09T10:03:58;6.82;;;4.75;;
65459;SDS011;52058;49.822;6.754;2023-04-09T10:06:26;8.65;;;4.90;;
65459;SDS011;52058;49.822;6.754;2023-04-09T10:08:52;8.07;;;5.43;;
65459;SDS011;52058;49.822;6.754;2023-04-09T10:11:22;7.53;;;4.90;;
65459;SDS011;52058;49.822;6.754;2023-04-09T10:13:52;7.18;;;4.80;;
65459;SDS011;52058;49.822;6.754;2023-04-09T10:16:23;7.10;;;5.15;;
65459;SDS011;52058;49.822;6.754;2023-04-09T10:18:51;6.78;;;4.75;;
65459;SDS011;52058;49.822;6.754;2023-04-09T10:21:21;7.57;;;4.82;;
65459;SDS011;52058;49.822;6.754;2023-04-09T10:23:52;7.45;;;4.85;;
65459;SDS011;52058;49.822;6.754;2023-04-09T10:26:19;6.65;;;4.75;;
65459;SDS011;52058;49.822;6.754;2023-04-09T10:28:46;6.90;;;4.78;;
65459;SDS011;52058;49.822;6.754;2023-04-09T10:31:29;6.93;;;4.82;;
65459;SDS011;52058;49.822;6.754;2023-04-09T10:36:41;7.60;;;4.75;;
65459;SDS011;52058;49.822;6.754;2023-04-09T10:39:10;6.72;;;4.68;;
65459;SDS011;52058;49.822;6.754;2023-04-09T10:41:37;6.85;;;4.85;;
65459;SDS011;52058;49.822;6.754;2023-04-09T10:44:05;7.90;;;5.00;;
65459;SDS011;52058;49.822;6.754;2023-04-09T10:46:34;7.50;;;5.07;;
65459;SDS011;52058;49.822;6.754;2023-04-09T10:49:11;7.57;;;5.18;;
65459;SDS011;52058;49.822;6.754;2023-04-09T10:51:40;6.65;;;4.75;;
65459;SDS011;52058;49.822;6.754;2023-04-09T10:57:10;6.22;;;4.85;;
65459;SDS011;52058;49.822;6.754;2023-04-09T10:59:41;6.47;;;4.72;;
65459;SDS011;52058;49.822;6.754;2023-04-09T11:02:15;7.70;;;4.80;;
65459;SDS011;52058;49.822;6.754;2023-04-09T11:05:11;6.95;;;4.82;;
65459;SDS011;52058;49.822;6.754;2023-04-09T11:07:46;8.35;;;4.93;;
65459;SDS011;52058;49.822;6.754;2023-04-09T11:10:18;6.78;;;4.45;;
65459;SDS011;52058;49.822;6.754;2023-04-09T11:12:45;7.15;;;4.63;;
65459;SDS011;52058;49.822;6.754;2023-04-09T11:15:15;6.85;;;4.40;;
65459;SDS011;52058;49.822;6.754;2023-04-09T11:17:43;6.32;;;4.70;;
65459;SDS011;52058;49.822;6.754;2023-04-09T11:20:11;7.50;;;4.50;;
65459;SDS011;52058;49.822;6.754;2023-04-09T11:22:38;5.40;;;3.88;;
65459;SDS011;52058;49.822;6.754;2023-04-09T11:25:05;5.07;;;3.97;;
65459;SDS011;52058;49.822;6.754;2023-04-09T11:27:35;5.97;;;4.18;;
65459;SDS011;52058;49.822;6.754;2023-04-09T11:30:03;6.75;;;4.60;;
65459;SDS011;52058;49.822;6.754;2023-04-09T11:32:30;6.18;;;4.20;;
65459;SDS011;52058;49.822;6.754;2023-04-09T11:34:58;6.75;;;4.57;;
65459;SDS011;52058;49.822;6.754;2023-04-09T11:37:25;6.63;;;3.90;;
65459;SDS011;52058;49.822;6.754;2023-04-09T11:39:52;5.78;;;4.07;;
65459;SDS011;52058;49.822;6.754;2023-04-09T11:42:19;5.25;;;4.03;;
65459;SDS011;52058;49.822;6.754;2023-04-09T11:44:47;6.32;;;4.43;;
65459;SDS011;52058;49.822;6.754;2023-04-09T11:47:14;5.00;;;3.85;;
65459;SDS011;52058;49.822;6.754;2023-04-09T11:49:42;4.68;;;3.63;;
65459;SDS011;52058;49.822;6.754;2023-04-09T11:52:12;5.20;;;3.97;;
65459;SDS011;52058;49.822;6.754;2023-04-09T11:54:40;4.47;;;3.45;;
65459;SDS011;52058;49.822;6.754;2023-04-09T11:57:07;5.15;;;3.70;;
65459;SDS011;52058;49.822;6.754;2023-04-09T11:59:36;3.90;;;3.17;;
65459;SDS011;52058;49.822;6.754;2023-04-09T12:02:04;4.90;;;3.83;;
65459;SDS011;52058;49.822;6.754;2023-04-09T12:04:31;4.45;;;3.42;;
65459;SDS011;52058;49.822;6.754;2023-04-09T12:06:58;5.68;;;3.85;;
65459;SDS011;52058;49.822;6.754;2023-04-09T12:09:26;5.07;;;3.65;;
65459;SDS011;52058;49.822;6.754;2023-04-09T12:11:53;5.38;;;3.90;;
65459;SDS011;52058;49.822;6.754;2023-04-09T12:14:20;4.07;;;3.13;;
65459;SDS011;52058;49.822;6.754;2023-04-09T12:16:49;4.85;;;3.30;;
65459;SDS011;52058;49.822;6.754;2023-04-09T12:19:16;4.55;;;3.30;;
65459;SDS011;52058;49.822;6.754;2023-04-09T12:21:44;4.40;;;3.42;;
65459;SDS011;52058;49.822;6.754;2023-04-09T12:24:13;4.35;;;3.47;;
65459;SDS011;52058;49.822;6.754;2023-04-09T12:26:41;4.95;;;3.47;;
65459;SDS011;52058;49.822;6.754;2023-04-09T12:29:08;3.70;;;3.05;;
65459;SDS011;52058;49.822;6.754;2023-04-09T12:31:34;3.95;;;3.33;;
65459;SDS011;52058;49.822;6.754;2023-04-09T12:34:01;5.00;;;2.95;;
65459;SDS011;52058;49.822;6.754;2023-04-09T12:36:28;4.97;;;3.80;;
65459;SDS011;52058;49.822;6.754;2023-04-09T12:38:54;4.13;;;3.30;;
65459;SDS011;52058;49.822;6.754;2023-04-09T12:41:21;4.95;;;3.40;;
65459;SDS011;52058;49.822;6.754;2023-04-09T12:43:50;4.22;;;3.30;;
65459;SDS011;52058;49.822;6.754;2023-04-09T12:46:16;4.10;;;3.17;;
65459;SDS011;52058;49.822;6.754;2023-04-09T12:48:43;4.00;;;3.30;;
65459;SDS011;52058;49.822;6.754;2023-04-09T12:51:10;4.70;;;3.20;;
65459;SDS011;52058;49.822;6.754;2023-04-09T12:53:36;4.07;;;3.13;;
65459;SDS011;52058;49.822;6.754;2023-04-09T12:56:03;4.43;;;3.28;;
65459;SDS011;52058;49.822;6.754;2023-04-09T12:58:30;4.35;;;3.13;;
65459;SDS011;52058;49.822;6.754;2023-04-09T13:00:58;4.60;;;3.10;;
65459;SDS011;52058;49.822;6.754;2023-04-09T13:03:25;4.63;;;3.15;;
65459;SDS011;52058;49.822;6.754;2023-04-09T13:05:53;4.10;;;3.05;;
65459;SDS011;52058;49.822;6.754;2023-04-09T13:08:19;3.90;;;3.35;;
65459;SDS011;52058;49.822;6.754;2023-04-09T13:10:46;5.75;;;3.10;;
65459;SDS011;52058;49.822;6.754;2023-04-09T13:13:13;4.60;;;3.28;;
65459;SDS011;52058;49.822;6.754;2023-04-09T13:15:39;4.60;;;3.08;;
65459;SDS011;52058;49.822;6.754;2023-04-09T13:18:10;3.97;;;3.38;;
65459;SDS011;52058;49.822;6.754;2023-04-09T13:20:37;3.70;;;3.20;;
65459;SDS011;52058;49.822;6.754;2023-04-09T13:23:04;3.72;;;3.03;;
65459;SDS011;52058;49.822;6.754;2023-04-09T13:25:31;3.60;;;3.05;;
65459;SDS011;52058;49.822;6.754;2023-04-09T13:27:57;3.80;;;3.17;;
65459;SDS011;52058;49.822;6.754;2023-04-09T13:30:24;3.25;;;2.95;;
65459;SDS011;52058;49.822;6.754;2023-04-09T13:32:51;4.38;;;3.42;;
65459;SDS011;52058;49.822;6.754;2023-04-09T13:35:18;3.40;;;3.10;;
65459;SDS011;52058;49.822;6.754;2023-04-09T13:37:45;4.18;;;3.30;;
65459;SDS011;52058;49.822;6.754;2023-04-09T13:40:12;4.18;;;2.80;;
65459;SDS011;52058;49.822;6.754;2023-04-09T13:42:38;3.50;;;3.20;;
65459;SDS011;52058;49.822;6.754;2023-04-09T13:45:05;2.90;;;2.60;;
65459;SDS011;52058;49.822;6.754;2023-04-09T13:47:32;3.25;;;2.95;;
65459;SDS011;52058;49.822;6.754;2023-04-09T13:49:59;2.67;;;2.47;;
65459;SDS011;52058;49.822;6.754;2023-04-09T13:52:27;2.95;;;2.63;;
65459;SDS011;52058;49.822;6.754;2023-04-09T13:54:54;3.90;;;3.13;;
65459;SDS011;52058;49.822;6.754;2023-04-09T13:57:20;3.30;;;2.35;;
65459;SDS011;52058;49.822;6.754;2023-04-09T13:59:47;2.58;;;2.38;;
65459;SDS011;52058;49.822;6.754;2023-04-09T14:02:13;3.00;;;2.70;;
65459;SDS011;52058;49.822;6.754;2023-04-09T14:04:41;2.63;;;2.38;;
65459;SDS011;52058;49.822;6.754;2023-04-09T14:07:08;4.18;;;2.88;;
65459;SDS011;52058;49.822;6.754;2023-04-09T14:09:36;2.67;;;2.38;;
65459;SDS011;52058;49.822;6.754;2023-04-09T14:12:02;2.47;;;2.28;;
65459;SDS011;52058;49.822;6.754;2023-04-09T14:14:29;3.28;;;2.97;;
65459;SDS011;52058;49.822;6.754;2023-04-09T14:16:56;2.88;;;2.50;;
65459;SDS011;52058;49.822;6.754;2023-04-09T14:19:23;2.47;;;2.22;;
65459;SDS011;52058;49.822;6.754;2023-04-09T14:21:49;2.60;;;2.40;;
65459;SDS011;52058;49.822;6.754;2023-04-09T14:24:17;2.83;;;2.40;;
65459;SDS011;52058;49.822;6.754;2023-04-09T14:26:48;2.53;;;2.33;;
65459;SDS011;52058;49.822;6.754;2023-04-09T14:29:17;2.70;;;2.50;;
65459;SDS011;52058;49.822;6.754;2023-04-09T14:31:43;2.28;;;2.08;;
65459;SDS011;52058;49.822;6.754;2023-04-09T14:34:11;3.55;;;2.30;;
65459;SDS011;52058;49.822;6.754;2023-04-09T14:36:38;3.13;;;2.83;;
65459;SDS011;52058;49.822;6.754;2023-04-09T14:39:04;2.50;;;2.30;;
65459;SDS011;52058;49.822;6.754;2023-04-09T14:41:31;2.67;;;2.22;;
65459;SDS011;52058;49.822;6.754;2023-04-09T14:44:01;2.47;;;2.28;;